createdAt,value
2019-05-14T00:02:12.285Z,5.77
2019-05-14T00:04:42.345Z,4.33
2019-05-14T00:07:11.587Z,7.33
2019-05-14T00:09:41.357Z,5.93
2019-05-14T00:12:11.340Z,5.23
2019-05-14T00:14:43.526Z,5.33
2019-05-14T00:17:11.449Z,3.57
2019-05-14T00:19:41.640Z,5.97
2019-05-14T00:22:11.599Z,6.17
2019-05-14T00:24:41.591Z,5.37
2019-05-14T00:27:11.469Z,4.47
2019-05-14T00:29:41.682Z,6.37
2019-05-14T00:32:11.184Z,5.37
2019-05-14T00:34:42.169Z,13.90
2019-05-14T00:37:11.573Z,7.07
2019-05-14T00:39:41.596Z,7.33
2019-05-14T00:42:12.486Z,12.53
2019-05-14T00:44:53.816Z,9.53
2019-05-14T00:47:11.246Z,10.07
2019-05-14T00:49:42.255Z,8.07
2019-05-14T00:52:11.674Z,7.83
2019-05-14T00:54:41.642Z,4.13
2019-05-14T00:57:11.795Z,5.20
2019-05-14T00:59:41.741Z,4.30
2019-05-14T01:02:11.451Z,4.13
2019-05-14T01:04:42.541Z,8.20
2019-05-14T01:07:11.919Z,8.20
2019-05-14T01:09:42.137Z,4.80
2019-05-14T01:12:12.210Z,6.03
2019-05-14T01:14:42.458Z,6.20
2019-05-14T01:17:11.459Z,8.50
2019-05-14T01:19:42.154Z,5.00
2019-05-14T01:22:12.531Z,8.13
2019-05-14T01:24:41.693Z,6.27
2019-05-14T01:27:12.445Z,4.80
2019-05-14T01:29:42.425Z,4.60
2019-05-14T01:32:11.811Z,5.97
2019-05-14T01:34:41.954Z,3.77
2019-05-14T01:37:11.738Z,5.30
2019-05-14T01:39:44.839Z,7.87
2019-05-14T01:42:13.327Z,5.97
2019-05-14T01:44:42.045Z,3.17
2019-05-14T01:47:12.676Z,5.17
2019-05-14T01:49:42.727Z,3.10
2019-05-14T01:52:11.407Z,3.80
2019-05-14T01:54:42.410Z,4.40
2019-05-14T01:57:11.571Z,5.43
2019-05-14T01:59:42.645Z,3.80
2019-05-14T02:02:11.589Z,5.30
2019-05-14T02:04:42.419Z,9.00
2019-05-14T02:07:11.608Z,4.03
2019-05-14T02:09:42.056Z,4.13
2019-05-14T02:12:11.622Z,6.10
2019-05-14T02:14:42.375Z,3.00
2019-05-14T02:17:12.385Z,3.70
2019-05-14T02:19:42.526Z,4.47
2019-05-14T02:22:11.351Z,3.87
2019-05-14T02:24:41.769Z,8.93
2019-05-14T02:27:12.322Z,3.60
2019-05-14T02:29:41.599Z,4.87
2019-05-14T02:32:10.863Z,6.33
2019-05-14T02:34:40.511Z,3.80
2019-05-14T02:37:09.564Z,4.33
2019-05-14T02:39:41.062Z,4.80
2019-05-14T02:42:09.353Z,3.80
2019-05-14T02:44:40.674Z,4.73
2019-05-14T02:47:09.970Z,3.87
2019-05-14T02:49:39.721Z,4.10
2019-05-14T02:52:09.901Z,3.90
2019-05-14T02:54:40.387Z,4.80
2019-05-14T02:57:10.440Z,8.03
2019-05-14T02:59:39.826Z,4.00
2019-05-14T03:02:10.099Z,5.07
2019-05-14T03:04:39.526Z,5.07
2019-05-14T03:07:10.750Z,5.90
2019-05-14T03:09:40.347Z,5.37
2019-05-14T03:12:10.150Z,3.13
2019-05-14T03:14:39.759Z,3.60
2019-05-14T03:17:10.299Z,4.37
2019-05-14T03:19:40.614Z,6.20
2019-05-14T03:22:10.292Z,6.37
2019-05-14T03:24:39.831Z,4.47
2019-05-14T03:27:09.702Z,3.50
2019-05-14T03:29:39.951Z,5.67
2019-05-14T03:32:13.081Z,4.63
2019-05-14T03:34:42.968Z,4.90
2019-05-14T03:37:13.166Z,5.67
2019-05-14T03:39:39.745Z,6.47
2019-05-14T03:42:09.435Z,5.70
2019-05-14T03:44:39.923Z,5.37
2019-05-14T03:47:10.278Z,5.63
2019-05-14T03:49:39.952Z,4.90
2019-05-14T03:52:09.580Z,4.27
2019-05-14T03:54:40.732Z,6.30
2019-05-14T03:57:09.498Z,4.90
2019-05-14T03:59:40.372Z,5.73
2019-05-14T04:02:09.766Z,7.87
2019-05-14T04:04:39.498Z,5.47
2019-05-14T04:07:09.696Z,4.43
2019-05-14T04:09:40.038Z,6.90
2019-05-14T04:12:10.031Z,5.50
2019-05-14T04:14:39.932Z,5.03
2019-05-14T04:17:14.392Z,4.90
2019-05-14T04:19:39.583Z,3.87
2019-05-14T04:22:10.107Z,5.50
2019-05-14T04:24:41.508Z,4.33
2019-05-14T04:27:13.084Z,3.70
2019-05-14T04:29:40.921Z,4.50
2019-05-14T04:32:10.081Z,3.53
2019-05-14T04:34:39.897Z,5.30
2019-05-14T04:37:09.706Z,3.73
2019-05-14T04:39:39.600Z,5.33
2019-05-14T04:42:09.589Z,3.73
2019-05-14T04:44:40.360Z,3.33
2019-05-14T04:47:25.260Z,5.37
2019-05-14T04:49:39.784Z,5.30
2019-05-14T04:52:10.080Z,5.37
2019-05-14T04:54:39.601Z,4.47
2019-05-14T04:57:10.289Z,5.07
2019-05-14T04:59:39.898Z,5.00
2019-05-14T05:02:09.746Z,4.10
2019-05-14T05:04:41.229Z,2.93
2019-05-14T05:07:09.879Z,3.30
2019-05-14T05:09:39.983Z,4.33
2019-05-14T05:12:09.287Z,3.07
2019-05-14T05:14:38.879Z,3.43
2019-05-14T05:17:09.171Z,4.47
2019-05-14T05:19:39.358Z,2.77
2019-05-14T05:22:08.187Z,3.70
2019-05-14T05:24:38.126Z,6.90
2019-05-14T05:27:09.063Z,3.37
2019-05-14T05:29:39.055Z,3.63
2019-05-14T05:32:08.654Z,4.40
2019-05-14T05:34:38.935Z,2.83
2019-05-14T05:37:08.669Z,4.13
2019-05-14T05:39:38.670Z,3.90
2019-05-14T05:42:09.157Z,2.83
2019-05-14T05:44:39.355Z,2.73
2019-05-14T05:47:09.149Z,3.07
2019-05-14T05:49:38.419Z,2.57
2019-05-14T05:52:08.585Z,4.40
2019-05-14T05:54:38.430Z,1.80
2019-05-14T05:57:09.238Z,5.47
2019-05-14T05:59:39.331Z,4.60
2019-05-14T06:02:09.421Z,1.73
2019-05-14T06:04:39.303Z,2.77
2019-05-14T06:07:08.820Z,2.20
2019-05-14T06:09:38.161Z,2.43
2019-05-14T06:12:08.678Z,4.33
2019-05-14T06:14:38.188Z,4.47
2019-05-14T06:17:08.590Z,2.57
2019-05-14T06:19:38.334Z,1.80
2019-05-14T06:22:09.542Z,2.13
2019-05-14T06:24:38.989Z,5.13
2019-05-14T06:27:09.455Z,2.17
2019-05-14T06:29:38.706Z,2.13
2019-05-14T06:32:09.321Z,2.77
2019-05-14T06:34:38.241Z,1.77
2019-05-14T06:37:08.363Z,2.97
2019-05-14T06:39:39.261Z,2.07
2019-05-14T06:42:11.868Z,2.20
2019-05-14T06:44:40.583Z,2.03
2019-05-14T06:47:09.434Z,3.50
2019-05-14T06:49:41.995Z,2.43
2019-05-14T06:52:14.373Z,2.50
2019-05-14T06:54:42.842Z,3.93
2019-05-14T06:57:11.557Z,2.83
2019-05-14T06:59:40.072Z,2.87
2019-05-14T07:02:12.127Z,1.40
2019-05-14T07:04:40.596Z,1.93
2019-05-14T07:07:09.118Z,4.33
2019-05-14T07:09:41.944Z,2.27
2019-05-14T07:12:14.742Z,3.30
2019-05-14T07:14:48.171Z,1.37
2019-05-14T07:17:18.342Z,1.47
2019-05-14T07:19:58.274Z,3.53
2019-05-14T07:22:28.450Z,1.40
2019-05-14T07:24:58.483Z,1.67
2019-05-14T07:27:28.374Z,1.50
2019-05-14T07:30:01.310Z,4.73
2019-05-14T07:32:29.090Z,1.67
2019-05-14T07:35:04.841Z,2.63
2019-05-14T07:37:35.133Z,4.40
2019-05-14T07:40:08.541Z,2.03
2019-05-14T07:42:38.360Z,1.63
2019-05-14T07:45:05.625Z,1.47
2019-05-14T07:47:33.081Z,2.40
2019-05-14T07:50:00.501Z,1.23
2019-05-14T07:52:28.461Z,0.97
2019-05-14T07:54:58.551Z,1.40
2019-05-14T07:57:25.301Z,2.70
2019-05-14T07:59:52.749Z,2.83
2019-05-14T08:02:20.189Z,1.10
2019-05-14T08:04:49.004Z,2.50
2019-05-14T08:07:18.438Z,1.37
2019-05-14T08:09:47.893Z,1.30
2019-05-14T08:12:30.876Z,0.90
2019-05-14T08:15:15.263Z,1.67
2019-05-14T08:17:31.554Z,1.83
2019-05-14T08:20:00.648Z,3.03
2019-05-14T08:22:29.151Z,2.30
2019-05-14T08:24:58.123Z,1.90
2019-05-14T08:27:27.994Z,1.20
2019-05-14T08:29:54.897Z,1.93
2019-05-14T08:32:22.621Z,1.13
2019-05-14T08:34:50.101Z,2.10
2019-05-14T08:37:19.084Z,1.93
2019-05-14T08:39:48.660Z,1.30
2019-05-14T08:42:15.865Z,1.33
2019-05-14T08:44:55.241Z,0.70
2019-05-14T08:47:22.933Z,1.07
2019-05-14T08:49:50.981Z,0.83
2019-05-14T08:52:20.249Z,1.20
2019-05-14T08:54:53.746Z,3.40
2019-05-14T08:57:18.943Z,1.27
2019-05-14T08:59:49.520Z,1.63
2019-05-14T09:02:19.400Z,0.90
2019-05-14T09:04:52.590Z,1.30
2019-05-14T09:07:15.292Z,1.20
2019-05-14T09:09:42.733Z,2.20
2019-05-14T09:12:12.594Z,2.10
2019-05-14T09:14:39.415Z,1.40
2019-05-14T09:17:09.681Z,1.30
2019-05-14T09:19:40.856Z,1.60
2019-05-14T09:22:06.316Z,0.80
2019-05-14T09:24:33.778Z,0.83
2019-05-14T09:27:01.217Z,1.10
2019-05-14T09:29:29.796Z,0.90
2019-05-14T09:31:58.973Z,2.00
2019-05-14T09:34:28.981Z,0.50
2019-05-14T09:36:59.414Z,2.30
2019-05-14T09:39:29.106Z,1.63
2019-05-14T09:41:58.173Z,2.40
2019-05-14T09:44:25.722Z,1.33
2019-05-14T09:46:53.453Z,0.93
2019-05-14T09:49:21.229Z,0.87
2019-05-14T09:51:50.744Z,3.20
2019-05-14T09:54:28.847Z,0.70
2019-05-14T09:57:00.090Z,1.00
2019-05-14T09:59:35.333Z,0.80
2019-05-14T10:02:03.928Z,4.50
2019-05-14T10:04:31.381Z,1.07
2019-05-14T10:06:59.375Z,1.37
2019-05-14T10:09:28.998Z,2.40
2019-05-14T10:11:57.964Z,1.37
2019-05-14T10:14:25.510Z,1.37
2019-05-14T10:16:54.456Z,3.13
2019-05-14T10:19:21.888Z,0.87
2019-05-14T10:21:51.252Z,0.97
2019-05-14T10:24:18.849Z,1.53
2019-05-14T10:26:48.256Z,0.77
2019-05-14T10:29:19.076Z,1.83
2019-05-14T10:31:50.050Z,1.70
2019-05-14T10:34:22.101Z,0.80
2019-05-14T10:36:49.539Z,0.60
2019-05-14T10:39:21.124Z,0.87
2019-05-14T10:41:48.552Z,0.83
2019-05-14T10:44:18.531Z,0.60
2019-05-14T10:46:48.169Z,0.70
2019-05-14T10:49:22.634Z,3.30
2019-05-14T10:51:44.792Z,1.13
2019-05-14T10:54:22.449Z,2.40
2019-05-14T10:56:45.332Z,1.23
2019-05-14T10:59:13.013Z,1.33
2019-05-14T11:01:40.439Z,0.53
2019-05-14T11:04:07.890Z,1.17
2019-05-14T11:06:35.320Z,0.50
2019-05-14T11:09:02.921Z,1.63
2019-05-14T11:11:30.332Z,0.50
2019-05-14T11:13:57.769Z,0.60
2019-05-14T11:16:25.505Z,1.07
2019-05-14T11:18:56.673Z,0.60
2019-05-14T11:21:26.398Z,2.13
2019-05-14T11:23:51.237Z,1.27
2019-05-14T11:26:18.929Z,5.27
2019-05-14T11:28:49.214Z,2.00
2019-05-14T11:31:18.758Z,0.50
2019-05-14T11:33:44.981Z,0.40
2019-05-14T11:36:12.430Z,0.53
2019-05-14T11:38:39.901Z,0.80
2019-05-14T11:41:09.638Z,0.93
2019-05-14T11:43:39.416Z,0.80
2019-05-14T11:46:08.423Z,2.27
2019-05-14T11:48:35.177Z,1.47
2019-05-14T11:51:02.629Z,0.93
2019-05-14T11:53:30.138Z,0.60
2019-05-14T11:55:58.674Z,0.50
2019-05-14T11:58:28.922Z,2.10
2019-05-14T12:00:55.508Z,2.80
2019-05-14T12:03:23.072Z,0.47
2019-05-14T12:05:50.534Z,0.57
2019-05-14T12:08:18.597Z,1.03
2019-05-14T12:10:46.253Z,0.63
2019-05-14T12:13:13.923Z,0.40
2019-05-14T12:15:41.422Z,0.97
2019-05-14T12:18:10.315Z,1.03
2019-05-14T12:20:39.567Z,2.37
2019-05-14T12:23:08.900Z,0.50
2019-05-14T12:25:36.946Z,0.87
2019-05-14T12:28:04.681Z,0.87
2019-05-14T12:30:32.103Z,0.77
2019-05-14T12:32:59.541Z,0.73
2019-05-14T12:35:29.227Z,1.33
2019-05-14T12:37:58.410Z,0.50
2019-05-14T12:40:25.292Z,0.77
2019-05-14T12:42:52.745Z,0.70
2019-05-14T12:45:20.175Z,1.27
2019-05-14T12:47:50.024Z,0.60
2019-05-14T12:50:16.800Z,2.37
2019-05-14T12:52:44.230Z,1.13
2019-05-14T12:55:11.731Z,1.27
2019-05-14T12:57:39.757Z,0.77
2019-05-14T13:00:08.962Z,0.90
2019-05-14T13:02:36.559Z,1.07
2019-05-14T13:05:04.543Z,0.80
2019-05-14T13:07:31.978Z,2.93
2019-05-14T13:09:59.453Z,1.27
2019-05-14T13:12:29.563Z,0.60
2019-05-14T13:14:57.886Z,0.90
2019-05-14T13:17:28.145Z,2.60
2019-05-14T13:19:55.662Z,3.57
2019-05-14T13:22:38.397Z,1.63
2019-05-14T13:24:52.286Z,1.03
2019-05-14T13:27:19.738Z,1.10
2019-05-14T13:29:48.744Z,0.50
2019-05-14T13:32:19.246Z,1.47
2019-05-14T13:34:48.477Z,0.67
2019-05-14T13:37:15.419Z,0.60
2019-05-14T13:39:42.861Z,0.57
2019-05-14T13:42:12.068Z,0.50
2019-05-14T13:44:39.634Z,0.73
2019-05-14T13:47:09.251Z,2.00
2019-05-14T13:49:38.894Z,0.70
2019-05-14T13:52:05.417Z,2.07
2019-05-14T13:54:32.850Z,2.30
2019-05-14T13:57:00.282Z,1.90
2019-05-14T13:59:27.738Z,1.43
2019-05-14T14:01:55.264Z,0.80
2019-05-14T14:04:22.721Z,1.00
2019-05-14T14:06:50.437Z,0.87
2019-05-14T14:09:17.857Z,0.77
2019-05-14T14:11:45.313Z,0.47
2019-05-14T14:14:12.994Z,0.70
2019-05-14T14:16:40.459Z,1.43
2019-05-14T14:19:08.734Z,0.60
2019-05-14T14:21:39.353Z,1.97
2019-05-14T14:24:05.531Z,0.60
2019-05-14T14:26:32.966Z,1.07
2019-05-14T14:29:00.407Z,1.80
2019-05-14T14:31:28.405Z,1.70
2019-05-14T14:33:56.044Z,0.57
2019-05-14T14:36:23.478Z,2.50
2019-05-14T14:38:50.934Z,0.83
2019-05-14T14:41:19.291Z,0.73
2019-05-14T14:43:53.763Z,1.17
2019-05-14T14:46:19.327Z,0.47
2019-05-14T14:48:49.047Z,2.33
2019-05-14T14:51:15.073Z,0.67
2019-05-14T14:53:53.453Z,1.20
2019-05-14T14:56:12.267Z,2.23
2019-05-14T14:58:39.956Z,0.80
2019-05-14T15:01:08.761Z,0.77
2019-05-14T15:03:36.565Z,1.67
2019-05-14T15:06:04.023Z,0.47
2019-05-14T15:08:31.464Z,0.70
2019-05-14T15:10:59.450Z,0.80
2019-05-14T15:13:27.062Z,1.20
2019-05-14T15:15:54.577Z,0.83
2019-05-14T15:18:22.051Z,1.20
2019-05-14T15:20:49.789Z,1.53
2019-05-14T15:23:19.339Z,0.90
2019-05-14T15:25:46.433Z,2.17
2019-05-14T15:28:13.874Z,0.60
2019-05-14T15:30:41.317Z,0.70
2019-05-14T15:33:09.282Z,0.60
2019-05-14T15:35:36.877Z,0.50
2019-05-14T15:38:04.318Z,1.40
2019-05-14T15:40:32.027Z,1.70
2019-05-14T15:43:02.088Z,0.50
2019-05-14T15:45:28.873Z,0.70
2019-05-14T15:48:00.887Z,1.33
2019-05-14T15:50:25.536Z,2.03
2019-05-14T15:52:52.997Z,0.63
2019-05-14T15:55:20.742Z,0.77
2019-05-14T15:57:48.252Z,0.80
2019-05-14T16:00:15.922Z,1.03
2019-05-14T16:02:43.383Z,1.40
2019-05-14T16:05:10.830Z,2.47
2019-05-14T16:07:39.087Z,0.87
2019-05-14T16:10:08.646Z,0.83
2019-05-14T16:12:39.146Z,0.43
2019-05-14T16:15:05.397Z,3.93
2019-05-14T16:17:33.050Z,2.77
2019-05-14T16:20:00.489Z,0.40
2019-05-14T16:22:29.342Z,1.07
2019-05-14T16:25:00.068Z,0.73
2019-05-14T16:27:26.123Z,0.77
2019-05-14T16:29:53.561Z,2.37
2019-05-14T16:32:20.993Z,1.23
2019-05-14T16:34:48.980Z,0.90
2019-05-14T16:37:18.183Z,3.20
2019-05-14T16:39:48.652Z,0.60
2019-05-14T16:42:15.306Z,2.57
2019-05-14T16:44:42.729Z,1.40
2019-05-14T16:47:10.195Z,0.70
2019-05-14T16:49:37.641Z,0.63
2019-05-14T16:52:05.103Z,0.70
2019-05-14T16:54:32.770Z,2.10
2019-05-14T16:57:00.281Z,1.50
2019-05-14T16:59:29.448Z,0.53
2019-05-14T17:01:58.521Z,1.17
2019-05-14T17:04:26.213Z,0.70
2019-05-14T17:06:53.655Z,0.50
2019-05-14T17:09:21.085Z,0.50
2019-05-14T17:11:48.530Z,3.00
2019-05-14T17:14:18.288Z,0.60
2019-05-14T17:16:45.114Z,2.50
2019-05-14T17:19:12.570Z,1.57
2019-05-14T17:21:40.010Z,1.97
2019-05-14T17:24:08.722Z,0.83
2019-05-14T17:26:38.050Z,0.67
2019-05-14T17:29:05.545Z,1.43
2019-05-14T17:31:32.974Z,0.97
2019-05-14T17:34:00.401Z,2.10
2019-05-14T17:36:28.309Z,0.50
2019-05-14T17:38:55.964Z,1.27
2019-05-14T17:41:23.448Z,1.40
2019-05-14T17:43:50.897Z,1.33
2019-05-14T17:46:18.554Z,1.70
2019-05-14T17:48:48.438Z,1.47
2019-05-14T17:51:15.289Z,2.13
2019-05-14T17:53:42.726Z,0.60
2019-05-14T17:56:10.152Z,0.50
2019-05-14T17:58:38.336Z,2.10
2019-05-14T18:01:08.780Z,1.27
2019-05-14T18:03:35.305Z,2.73
2019-05-14T18:06:02.774Z,1.50
2019-05-14T18:08:30.253Z,0.70
2019-05-14T18:10:59.242Z,0.83
2019-05-14T18:13:26.840Z,0.70
2019-05-14T18:15:54.564Z,0.93
2019-05-14T18:18:22.041Z,1.20
2019-05-14T18:20:49.501Z,0.80
2019-05-14T18:23:18.187Z,1.40
2019-05-14T18:26:02.825Z,0.90
2019-05-14T18:28:14.896Z,0.93
2019-05-14T18:30:42.331Z,1.40
2019-05-14T18:33:10.062Z,0.70
2019-05-14T18:35:45.177Z,2.43
2019-05-14T18:38:08.288Z,1.50
2019-05-14T18:40:35.781Z,1.40
2019-05-14T18:43:03.553Z,2.23
2019-05-14T18:45:31.238Z,3.03
2019-05-14T18:47:59.241Z,1.50
2019-05-14T18:50:28.849Z,0.80
2019-05-14T18:52:55.925Z,0.83
2019-05-14T18:55:23.709Z,0.73
2019-05-14T18:57:51.390Z,1.17
2019-05-14T19:00:18.812Z,2.73
2019-05-14T19:02:48.060Z,0.90
2019-05-14T19:05:18.147Z,3.53
2019-05-14T19:07:44.877Z,0.70
2019-05-14T19:10:12.318Z,2.73
2019-05-14T19:12:39.766Z,1.13
2019-05-14T19:15:08.738Z,1.90
2019-05-14T19:17:38.672Z,2.20
2019-05-14T19:20:05.770Z,3.30
2019-05-14T19:22:33.210Z,1.47
2019-05-14T19:25:00.640Z,0.87
2019-05-14T19:27:28.599Z,0.73
2019-05-14T19:29:56.189Z,0.70
2019-05-14T19:32:24.210Z,0.80
2019-05-14T19:34:52.042Z,1.13
2019-05-14T19:37:19.493Z,3.43
2019-05-14T19:39:47.943Z,4.30
2019-05-14T19:42:18.158Z,2.73
2019-05-14T19:44:44.917Z,3.77
2019-05-14T19:47:12.370Z,3.17
2019-05-14T19:49:39.807Z,3.83
2019-05-14T19:52:08.184Z,2.30
2019-05-14T19:54:38.232Z,4.10
2019-05-14T19:57:05.047Z,6.33
2019-05-14T19:59:32.585Z,4.37
2019-05-14T20:02:00.012Z,6.10
2019-05-14T20:04:29.149Z,15.53
2019-05-14T20:06:56.701Z,8.67
2019-05-14T20:09:24.131Z,8.40
2019-05-14T20:11:51.579Z,8.50
2019-05-14T20:14:19.005Z,12.60
2019-05-14T20:16:48.943Z,8.30
2019-05-14T20:19:15.677Z,12.47
2019-05-14T20:21:43.133Z,11.43
2019-05-14T20:24:10.600Z,11.80
2019-05-14T20:26:39.037Z,9.83
2019-05-14T20:29:08.719Z,12.27
2019-05-14T20:31:38.762Z,12.73
2019-05-14T20:34:05.577Z,8.23
2019-05-14T20:36:33.045Z,5.53
2019-05-14T20:39:00.481Z,10.13
2019-05-14T20:41:28.753Z,5.97
2019-05-14T20:43:58.489Z,4.53
2019-05-14T20:46:25.641Z,3.20
2019-05-14T20:48:53.074Z,2.93
2019-05-14T20:51:20.577Z,2.23
2019-05-14T20:53:48.719Z,2.50
2019-05-14T20:56:18.761Z,2.97
2019-05-14T20:58:45.557Z,3.20
2019-05-14T21:01:13.319Z,1.47
2019-05-14T21:03:43.954Z,3.10
2019-05-14T21:06:10.465Z,4.53
2019-05-14T21:08:38.108Z,3.53
2019-05-14T21:11:08.071Z,6.33
2019-05-14T21:13:34.785Z,7.43
2019-05-14T21:16:02.549Z,3.90
2019-05-14T21:18:35.162Z,8.33
2019-05-14T21:20:59.513Z,3.67
2019-05-14T21:23:26.976Z,5.53
2019-05-14T21:25:54.710Z,3.60
2019-05-14T21:28:22.145Z,3.23
2019-05-14T21:30:49.624Z,6.00
2019-05-14T21:33:17.110Z,2.53
2019-05-14T21:35:44.516Z,6.30
2019-05-14T21:38:11.967Z,2.40
2019-05-14T21:40:39.414Z,5.87
2019-05-14T21:43:11.019Z,5.33
2019-05-14T21:45:38.148Z,6.20
2019-05-14T21:48:05.196Z,7.20
2019-05-14T21:50:32.628Z,4.27
2019-05-14T21:53:00.331Z,4.37
2019-05-14T21:55:28.886Z,3.57
2019-05-14T21:57:57.398Z,3.90
2019-05-14T22:00:30.068Z,2.77
2019-05-14T22:02:58.488Z,5.47
2019-05-14T22:05:28.253Z,4.13
2019-05-14T22:07:55.259Z,2.77
2019-05-14T22:10:22.751Z,2.87
2019-05-14T22:12:50.197Z,2.53
2019-05-14T22:15:18.472Z,3.77
2019-05-14T22:17:46.109Z,5.33
2019-05-14T22:20:13.569Z,4.67
2019-05-14T22:22:41.025Z,5.30
2019-05-14T22:25:08.476Z,4.80
2019-05-14T22:27:36.213Z,4.33
2019-05-14T22:30:04.398Z,4.70
2019-05-14T22:32:31.810Z,2.17
2019-05-14T22:34:59.511Z,2.83
2019-05-14T22:37:28.043Z,2.40
2019-05-14T22:39:55.681Z,4.10
2019-05-14T22:42:23.419Z,4.87
2019-05-14T22:44:51.174Z,5.97
2019-05-14T22:47:18.867Z,10.00
2019-05-14T22:49:48.405Z,7.13
2019-05-14T22:52:15.725Z,6.83
2019-05-14T22:54:43.142Z,3.63
2019-05-14T22:57:10.573Z,2.40
2019-05-14T22:59:39.256Z,4.03
2019-05-14T23:02:08.497Z,4.53
2019-05-14T23:04:38.370Z,4.07
2019-05-14T23:07:08.079Z,2.87
2019-05-14T23:09:34.855Z,2.57
2019-05-14T23:12:02.333Z,2.37
2019-05-14T23:14:29.871Z,3.50
2019-05-14T23:16:57.302Z,2.57
2019-05-14T23:19:24.736Z,4.33
2019-05-14T23:21:52.174Z,7.83
2019-05-14T23:24:19.629Z,11.67
2019-05-14T23:26:49.218Z,11.30
2019-05-14T23:29:16.489Z,6.53
2019-05-14T23:31:44.143Z,5.83
2019-05-14T23:34:11.572Z,4.10
2019-05-14T23:36:39.059Z,5.73
2019-05-14T23:39:08.883Z,6.93
2019-05-14T23:41:38.180Z,5.90
2019-05-14T23:44:04.970Z,7.20
2019-05-14T23:46:32.413Z,4.40
2019-05-14T23:48:59.850Z,5.63
2019-05-14T23:51:29.009Z,6.60
2019-05-14T23:53:57.070Z,6.00
2019-05-14T23:56:24.853Z,6.40
2019-05-14T23:58:57.932Z,4.50
